Villa Dolores, Argentina
Current Conditions -  °F | °C
As of 8:00 PM on Saturday 20 Dec 2014 (Local Time) from SACO Reporting Station
Broken Clouds Broken Clouds  
Wind Chill: 72°   Ceiling: 10000
Heat Index: 72°   Visibility: 6mi
Dew Point: 54°   Wind: 14mph
Humidity: 53%   Direction: 140°SE
Pressure: 29.71"   Gusts: NA
Location:  31.95°S, 65.15°W
Report Text: SACO 202300Z 14012KT 9999 SCT030 BKN100 22/12 Q1006
Loading
Personal Weather Stations






























Interactive Weather Map New forecast layout! Learn more

10-Day Weather Forecast

Advertisements
Track Severe Weather on mobile